Time;durP1;ratioP1;P1;durP2;ratioP2;P2;SDS_P1;SDS_P2;PMS_P1;PMS_P2;Temp;Humidity;BMP_temperature;BMP_pressure;BME280_temperature;BME280_humidity;BME280_pressure;Samples;Min_cycle;Max_cycle;Signal;HPM_P1;HPM_P2
2024/03/15 00:00:58;;;;;;;12.18;2.90;;;;;;;;;;5017007;28;20037;-83
2024/03/15 00:03:25;;;;;;;10.25;2.42;;;;;;;;;;5010228;28;20503;-83
2024/03/15 00:05:51;;;;;;;13.32;2.92;;;;;;;;;;5013909;28;20475;-83
2024/03/15 00:08:17;;;;;;;11.82;3.03;;;;;;;;;;5009599;28;20142;-82
2024/03/15 00:10:43;;;;;;;13.23;3.20;;;;;;;;;;5012780;28;20601;-82
2024/03/15 00:13:11;;;;;;;14.73;3.30;;;;;;;;;;5013123;28;20063;-82
2024/03/15 00:15:39;;;;;;;12.57;4.10;;;;;;;;;;5011384;28;20041;-83
2024/03/15 00:18:05;;;;;;;12.18;3.90;;;;;;;;;;5012874;28;20476;-82
2024/03/15 00:20:32;;;;;;;11.45;3.30;;;;;;;;;;5009995;28;20028;-82
2024/03/15 00:22:58;;;;;;;11.50;2.92;;;;;;;;;;5009723;28;20114;-83
2024/03/15 00:25:25;;;;;;;14.93;3.15;;;;;;;;;;5007820;28;20053;-82
2024/03/15 00:27:52;;;;;;;11.25;2.63;;;;;;;;;;5015029;28;20482;-81
2024/03/15 00:30:18;;;;;;;12.88;2.78;;;;;;;;;;5014132;28;20023;-82
2024/03/15 00:32:44;;;;;;;10.27;2.75;;;;;;;;;;5014709;28;20542;-84
2024/03/15 00:35:10;;;;;;;12.73;2.70;;;;;;;;;;5011412;28;20067;-81
2024/03/15 00:37:37;;;;;;;13.10;2.55;;;;;;;;;;5013020;28;20053;-84
2024/03/15 00:40:03;;;;;;;13.38;2.90;;;;;;;;;;5016205;28;21226;-83
2024/03/15 00:42:29;;;;;;;12.23;3.10;;;;;;;;;;5008826;28;20721;-84
2024/03/15 00:44:55;;;;;;;15.13;3.25;;;;;;;;;;5010792;28;20032;-84
2024/03/15 00:47:22;;;;;;;14.20;3.00;;;;;;;;;;5020514;28;20028;-81
2024/03/15 00:49:48;;;;;;;12.32;2.92;;;;;;;;;;5011035;28;20049;-82
2024/03/15 00:52:14;;;;;;;13.23;3.42;;;;;;;;;;5016836;28;20033;-83
2024/03/15 00:54:40;;;;;;;12.32;3.30;;;;;;;;;;5014712;28;20152;-83
2024/03/15 00:57:07;;;;;;;12.25;3.38;;;;;;;;;;5011402;28;20036;-82
2024/03/15 00:59:34;;;;;;;13.75;3.88;;;;;;;;;;5007382;28;20028;-82
2024/03/15 01:02:00;;;;;;;12.65;3.55;;;;;;;;;;5007516;28;20057;-81
2024/03/15 01:04:29;;;;;;;14.50;3.58;;;;;;;;;;5008287;28;20033;-83
2024/03/15 01:06:57;;;;;;;11.20;3.30;;;;;;;;;;5010167;28;20036;-81
2024/03/15 01:09:26;;;;;;;13.45;3.70;;;;;;;;;;5008611;28;20037;-83
2024/03/15 01:11:52;;;;;;;13.00;3.38;;;;;;;;;;5012765;28;20187;-81
2024/03/15 01:14:18;;;;;;;;;;;;;;;;;;5013493;28;20032;-82
2024/03/15 01:16:51;;;;;;;12.65;3.78;;;;;;;;;;5019929;28;19919;-83
2024/03/15 01:19:18;;;;;;;12.13;3.33;;;;;;;;;;5014552;28;21184;-82
2024/03/15 01:21:44;;;;;;;11.18;3.20;;;;;;;;;;5017643;28;20603;-83
2024/03/15 01:24:12;;;;;;;;;;;;;;;;;;5008550;28;20167;-80
2024/03/15 01:26:39;;;;;;;12.48;2.85;;;;;;;;;;5017051;28;20382;-82
2024/03/15 01:29:08;;;;;;;13.82;2.55;;;;;;;;;;5017680;28;20029;-81
2024/03/15 01:31:35;;;;;;;11.63;2.53;;;;;;;;;;5013663;28;20026;-82
2024/03/15 01:34:01;;;;;;;9.38;2.13;;;;;;;;;;5014877;28;20060;-82
2024/03/15 01:36:27;;;;;;;9.27;2.10;;;;;;;;;;5009879;28;20031;-81
2024/03/15 01:38:53;;;;;;;9.93;2.30;;;;;;;;;;5020753;28;20064;-82
2024/03/15 01:41:19;;;;;;;9.30;2.15;;;;;;;;;;5013134;28;20036;-81
2024/03/15 01:43:48;;;;;;;11.18;2.30;;;;;;;;;;5021225;28;20033;-82
2024/03/15 01:46:15;;;;;;;10.27;2.40;;;;;;;;;;5019225;28;20120;-81
2024/03/15 01:48:42;;;;;;;;;;;;;;;;;;5016818;28;20060;-80
2024/03/15 01:51:09;;;;;;;15.27;2.50;;;;;;;;;;5024024;28;19951;-83
2024/03/15 01:53:35;;;;;;;10.40;2.70;;;;;;;;;;5017450;28;20117;-81
2024/03/15 01:56:02;;;;;;;9.50;2.20;;;;;;;;;;5026124;28;20140;-81
2024/03/15 01:58:28;;;;;;;10.48;2.33;;;;;;;;;;5011307;28;21657;-83
2024/03/15 02:00:56;;;;;;;10.02;2.00;;;;;;;;;;5013404;28;20036;-81
2024/03/15 02:03:25;;;;;;;8.40;1.83;;;;;;;;;;5012170;28;20096;-82
2024/03/15 02:05:52;;;;;;;12.75;2.40;;;;;;;;;;5016147;28;20041;-82
2024/03/15 02:08:21;;;;;;;8.90;2.20;;;;;;;;;;5012531;28;20021;-81
2024/03/15 02:10:47;;;;;;;10.82;2.38;;;;;;;;;;5012968;28;20757;-81
2024/03/15 02:13:15;;;;;;;13.43;2.50;;;;;;;;;;5011610;28;20087;-82
2024/03/15 02:15:42;;;;;;;9.77;2.13;;;;;;;;;;5012915;28;20514;-81
2024/03/15 02:18:08;;;;;;;10.68;2.50;;;;;;;;;;5011048;28;20030;-81
2024/03/15 02:20:35;;;;;;;11.55;2.40;;;;;;;;;;5013944;28;20040;-82
2024/03/15 02:23:03;;;;;;;10.65;2.35;;;;;;;;;;5012872;28;20056;-81
2024/03/15 02:25:30;;;;;;;10.55;2.40;;;;;;;;;;5008275;28;20026;-80
2024/03/15 02:27:56;;;;;;;10.68;2.20;;;;;;;;;;5013968;28;20025;-81
2024/03/15 02:30:22;;;;;;;10.35;2.40;;;;;;;;;;5010530;28;20033;-81
2024/03/15 02:33:02;;;;;;;8.48;2.25;;;;;;;;;;5010983;28;20032;-81
2024/03/15 02:35:30;;;;;;;11.43;2.38;;;;;;;;;;5009518;28;20053;-81
2024/03/15 02:38:08;;;;;;;11.90;2.63;;;;;;;;;;5011328;28;20048;-81
2024/03/15 02:40:35;;;;;;;8.82;2.28;;;;;;;;;;5012299;28;20056;-81
2024/03/15 02:43:03;;;;;;;10.32;2.55;;;;;;;;;;5012887;28;20035;-82
2024/03/15 02:45:30;;;;;;;9.43;2.25;;;;;;;;;;5007940;28;20441;-81
2024/03/15 02:47:58;;;;;;;9.35;2.45;;;;;;;;;;5013078;28;20049;-81
2024/03/15 02:50:25;;;;;;;12.38;2.55;;;;;;;;;;5009738;28;20749;-80
2024/03/15 02:52:56;;;;;;;9.68;2.47;;;;;;;;;;5013900;28;20045;-82
2024/03/15 02:55:26;;;;;;;10.55;2.80;;;;;;;;;;5005653;28;20424;-80
2024/03/15 02:57:55;;;;;;;10.15;2.42;;;;;;;;;;5009419;28;20030;-81
2024/03/15 03:00:24;;;;;;;10.68;2.33;;;;;;;;;;5009328;28;20967;-81
2024/03/15 03:02:53;;;;;;;12.18;2.85;;;;;;;;;;5009881;28;20048;-83
2024/03/15 03:05:19;;;;;;;13.73;2.97;;;;;;;;;;5008264;28;20029;-82
2024/03/15 03:07:49;;;;;;;10.25;2.47;;;;;;;;;;5012420;28;20321;-82
2024/03/15 03:10:15;;;;;;;11.18;2.72;;;;;;;;;;5003469;28;20025;-81
2024/03/15 03:12:43;;;;;;;10.18;2.38;;;;;;;;;;5011263;28;20068;-80
2024/03/15 03:15:10;;;;;;;12.23;2.80;;;;;;;;;;5012593;28;20029;-81
2024/03/15 03:17:36;;;;;;;10.55;2.47;;;;;;;;;;5009845;28;20025;-81
2024/03/15 03:20:11;;;;;;;9.45;2.40;;;;;;;;;;5010993;28;20097;-82
2024/03/15 03:22:40;;;;;;;11.10;2.65;;;;;;;;;;5009271;28;20037;-82
2024/03/15 03:25:09;;;;;;;9.55;2.28;;;;;;;;;;5006555;28;20530;-82
2024/03/15 03:27:37;;;;;;;12.05;2.35;;;;;;;;;;5010182;28;20045;-82
2024/03/15 03:30:07;;;;;;;11.05;2.15;;;;;;;;;;5013226;28;20029;-81
2024/03/15 03:32:38;;;;;;;8.40;1.88;;;;;;;;;;5006629;28;20044;-82
2024/03/15 03:35:05;;;;;;;8.82;2.05;;;;;;;;;;5008833;28;20065;-81
2024/03/15 03:37:37;;;;;;;10.73;2.10;;;;;;;;;;5005194;28;20048;-81
2024/03/15 03:40:13;;;;;;;9.10;1.85;;;;;;;;;;4992940;28;20146;-81
2024/03/15 03:42:44;;;;;;;11.98;2.25;;;;;;;;;;5015079;28;20145;-81
2024/03/15 03:45:18;;;;;;;9.40;1.92;;;;;;;;;;5008767;28;20029;-81
2024/03/15 03:47:57;;;;;;;11.93;2.53;;;;;;;;;;5006634;28;20061;-81
2024/03/15 03:50:26;;;;;;;10.18;2.47;;;;;;;;;;5004882;28;20111;-83
2024/03/15 03:52:55;;;;;;;12.65;2.30;;;;;;;;;;5009540;28;20042;-81
2024/03/15 03:55:25;;;;;;;11.02;2.53;;;;;;;;;;5006696;28;20031;-83
2024/03/15 03:57:55;;;;;;;10.88;2.40;;;;;;;;;;5009021;28;20041;-83
2024/03/15 04:00:23;;;;;;;9.90;2.20;;;;;;;;;;5009016;28;20029;-84
2024/03/15 04:02:50;;;;;;;8.57;2.17;;;;;;;;;;5012105;28;20037;-81
2024/03/15 04:05:20;;;;;;;10.07;2.20;;;;;;;;;;5006940;28;20103;-83
2024/03/15 04:07:47;;;;;;;10.25;2.28;;;;;;;;;;5011507;28;20097;-81
2024/03/15 04:10:13;;;;;;;;;;;;;;;;;;5006692;28;21629;-80
2024/03/15 04:12:40;;;;;;;12.13;2.60;;;;;;;;;;5010253;28;20761;-82
2024/03/15 04:15:10;;;;;;;10.90;2.47;;;;;;;;;;5008480;28;20025;-80
2024/03/15 04:17:36;;;;;;;10.40;2.30;;;;;;;;;;5009010;28;20040;-82
2024/03/15 04:20:06;;;;;;;;;;;;;;;;;;5009063;28;20025;-81
2024/03/15 04:22:32;;;;;;;13.60;2.90;;;;;;;;;;5003681;28;19971;-83
2024/03/15 04:24:59;;;;;;;15.68;2.88;;;;;;;;;;5011324;28;20063;-83
2024/03/15 04:27:25;;;;;;;11.05;2.35;;;;;;;;;;5011201;28;20045;-80
2024/03/15 04:29:52;;;;;;;10.70;2.05;;;;;;;;;;5009632;28;20033;-80
2024/03/15 04:32:19;;;;;;;;;;;;;;;;;;5012887;28;20645;-82
2024/03/15 04:34:51;;;;;;;11.55;2.47;;;;;;;;;;5025516;28;19913;-82
2024/03/15 04:37:19;;;;;;;11.57;2.60;;;;;;;;;;5024578;28;20045;-84
2024/03/15 04:39:45;;;;;;;13.48;2.92;;;;;;;;;;5028374;28;20060;-83
2024/03/15 04:42:12;;;;;;;9.57;2.17;;;;;;;;;;5020407;28;20041;-83
2024/03/15 04:44:38;;;;;;;12.52;2.60;;;;;;;;;;5011870;28;20063;-81
2024/03/15 04:47:08;;;;;;;12.93;2.55;;;;;;;;;;5013283;28;20048;-80
2024/03/15 04:49:34;;;;;;;12.07;2.83;;;;;;;;;;5010100;28;20121;-82
2024/03/15 04:52:01;;;;;;;10.07;2.30;;;;;;;;;;5016698;28;20036;-82
2024/03/15 04:54:29;;;;;;;11.68;2.47;;;;;;;;;;4994907;28;20060;-82
2024/03/15 04:56:55;;;;;;;17.05;2.80;;;;;;;;;;5013420;28;20749;-82
2024/03/15 04:59:21;;;;;;;12.05;2.63;;;;;;;;;;5009404;28;20041;-82
2024/03/15 05:01:47;;;;;;;11.23;2.22;;;;;;;;;;5014979;28;20041;-82
2024/03/15 05:04:13;;;;;;;11.07;2.60;;;;;;;;;;5005927;28;20041;-81
2024/03/15 05:06:39;;;;;;;12.55;2.40;;;;;;;;;;5010531;28;20262;-81
2024/03/15 05:09:08;;;;;;;11.32;2.25;;;;;;;;;;5008583;28;20139;-83
2024/03/15 05:11:35;;;;;;;13.60;3.65;;;;;;;;;;5013294;28;20033;-83
2024/03/15 05:14:01;;;;;;;;;;;;;;;;;;5013150;28;20030;-82
2024/03/15 05:16:27;;;;;;;13.00;2.70;;;;;;;;;;5012428;28;19919;-81
2024/03/15 05:18:53;;;;;;;10.57;2.63;;;;;;;;;;5016511;28;20124;-85
2024/03/15 05:21:19;;;;;;;13.35;2.70;;;;;;;;;;5011420;28;20160;-83
2024/03/15 05:23:47;;;;;;;;;;;;;;;;;;5013927;28;20036;-83
2024/03/15 05:26:13;;;;;;;12.98;2.30;;;;;;;;;;5011700;28;19913;-83
2024/03/15 05:28:40;;;;;;;14.38;2.92;;;;;;;;;;5015182;28;20148;-83
2024/03/15 05:31:08;;;;;;;9.55;2.50;;;;;;;;;;5017541;28;20668;-83
2024/03/15 05:33:37;;;;;;;14.93;3.10;;;;;;;;;;5007226;28;20025;-83
2024/03/15 05:36:03;;;;;;;12.88;2.75;;;;;;;;;;5008345;28;20033;-81
2024/03/15 05:38:33;;;;;;;10.63;2.38;;;;;;;;;;5001850;28;20051;-81
2024/03/15 05:41:03;;;;;;;9.43;2.42;;;;;;;;;;5008345;28;20172;-83
2024/03/15 05:43:29;;;;;;;12.27;2.63;;;;;;;;;;5010495;28;22109;-82
2024/03/15 05:45:55;;;;;;;10.50;2.70;;;;;;;;;;5009994;28;20123;-82
2024/03/15 05:48:21;;;;;;;12.02;2.80;;;;;;;;;;5007949;28;20936;-80
2024/03/15 05:50:47;;;;;;;;;;;;;;;;;;5010287;28;20124;-82
2024/03/15 05:53:14;;;;;;;10.50;2.53;;;;;;;;;;5004813;28;19913;-83
2024/03/15 05:55:40;;;;;;;10.57;2.50;;;;;;;;;;5012677;28;20033;-81
2024/03/15 05:58:06;;;;;;;9.43;2.28;;;;;;;;;;5009402;28;20828;-81
2024/03/15 06:00:34;;;;;;;12.35;2.95;;;;;;;;;;5004165;28;20026;-83
2024/03/15 06:03:05;;;;;;;12.68;3.00;;;;;;;;;;5009268;28;20056;-83
2024/03/15 06:05:32;;;;;;;12.05;3.10;;;;;;;;;;5005916;28;20044;-82
2024/03/15 06:07:58;;;;;;;13.55;3.80;;;;;;;;;;5008995;28;20183;-82
2024/03/15 06:10:25;;;;;;;13.25;4.35;;;;;;;;;;5008748;28;20030;-82
2024/03/15 06:12:51;;;;;;;12.30;4.22;;;;;;;;;;5014835;28;20048;-82
2024/03/15 06:15:21;;;;;;;12.73;3.90;;;;;;;;;;5008926;28;20041;-82
2024/03/15 06:17:51;;;;;;;11.40;3.28;;;;;;;;;;5014030;28;20038;-83
2024/03/15 06:20:23;;;;;;;12.50;3.67;;;;;;;;;;5017095;28;20029;-82
2024/03/15 06:22:55;;;;;;;9.02;3.00;;;;;;;;;;5016273;28;20050;-83
2024/03/15 06:25:25;;;;;;;11.55;3.22;;;;;;;;;;5020366;28;20024;-82
2024/03/15 06:28:06;;;;;;;12.10;3.33;;;;;;;;;;5013754;28;20814;-82
2024/03/15 06:30:40;;;;;;;12.20;3.42;;;;;;;;;;5014702;28;20039;-81
2024/03/15 06:33:10;;;;;;;11.50;3.20;;;;;;;;;;5014817;28;20101;-81
2024/03/15 06:36:00;;;;;;;11.52;2.95;;;;;;;;;;5013089;28;20361;-82
2024/03/15 06:41:29;;;;;;;12.65;3.08;;;;;;;;;;4989497;28;20870;-85
2024/03/15 06:44:09;;;;;;;12.75;3.30;;;;;;;;;;4990462;28;20065;-80
2024/03/15 06:47:04;;;;;;;12.68;3.33;;;;;;;;;;4989803;28;20163;-82
2024/03/15 06:50:30;;;;;;;12.57;3.17;;;;;;;;;;4987536;28;20038;-81
2024/03/15 06:52:36;;;;;;;10.63;3.17;;;;;;;;;;4987496;28;20066;-83
2024/03/15 06:55:04;;;;;;;15.15;3.72;;;;;;;;;;4994647;28;20607;-83
2024/03/15 06:57:39;;;;;;;12.95;3.83;;;;;;;;;;4970625;28;20034;-82
2024/03/15 07:00:11;;;;;;;10.32;3.20;;;;;;;;;;4991174;28;20094;-83
2024/03/15 07:02:44;;;;;;;16.58;3.85;;;;;;;;;;4989167;28;20026;-84
2024/03/15 07:05:16;;;;;;;16.33;4.32;;;;;;;;;;4989432;28;20054;-82
2024/03/15 07:07:46;;;;;;;10.80;3.42;;;;;;;;;;4973163;28;20117;-84
2024/03/15 07:10:13;;;;;;;17.80;3.80;;;;;;;;;;4970301;28;20220;-81
2024/03/15 07:12:42;;;;;;;13.57;3.53;;;;;;;;;;4988944;28;20141;-83
2024/03/15 07:15:09;;;;;;;15.63;4.32;;;;;;;;;;4987047;28;20081;-83
2024/03/15 07:17:38;;;;;;;13.73;3.70;;;;;;;;;;4975415;28;20029;-82
2024/03/15 07:20:08;;;;;;;14.80;4.40;;;;;;;;;;5013943;28;20037;-82
2024/03/15 07:22:35;;;;;;;13.80;3.97;;;;;;;;;;5018277;28;20121;-83
2024/03/15 07:25:04;;;;;;;;;;;;;;;;;;5015135;28;20123;-86
2024/03/15 07:27:31;;;;;;;14.43;4.25;;;;;;;;;;5009466;28;20005;-83
2024/03/15 07:29:59;;;;;;;15.32;3.95;;;;;;;;;;5014667;28;20115;-82
2024/03/15 07:32:25;;;;;;;13.55;3.80;;;;;;;;;;5013240;28;20117;-80
2024/03/15 07:34:51;;;;;;;;;;;;;;;;;;5014980;28;20036;-83
2024/03/15 07:37:17;;;;;;;16.63;4.13;;;;;;;;;;5014416;28;19912;-83
2024/03/15 07:39:44;;;;;;;15.18;4.20;;;;;;;;;;5014471;28;20044;-83
2024/03/15 07:42:10;;;;;;;15.07;4.15;;;;;;;;;;5010179;28;20044;-84
2024/03/15 07:44:37;;;;;;;;;;;;;;;;;;5018244;28;20095;-82
2024/03/15 07:47:03;;;;;;;15.00;4.07;;;;;;;;;;5017036;28;20617;-81
2024/03/15 07:49:29;;;;;;;16.58;4.30;;;;;;;;;;5018736;28;20044;-81
2024/03/15 07:51:56;;;;;;;;;;;;;;;;;;5022229;28;20036;-84
2024/03/15 07:54:24;;;;;;;18.17;4.65;;;;;;;;;;5019054;28;20393;-83
2024/03/15 07:56:52;;;;;;;15.02;4.25;;;;;;;;;;5023412;28;20040;-85
2024/03/15 07:59:20;;;;;;;17.30;4.72;;;;;;;;;;5016819;28;20182;-84
2024/03/15 08:01:50;;;;;;;17.17;5.60;;;;;;;;;;5020406;28;20025;-83
2024/03/15 08:04:21;;;;;;;19.17;5.25;;;;;;;;;;5028923;28;20045;-84
2024/03/15 08:06:49;;;;;;;17.75;4.90;;;;;;;;;;5037495;28;20083;-84
2024/03/15 08:09:19;;;;;;;19.50;4.68;;;;;;;;;;5029132;28;20041;-83
2024/03/15 08:11:48;;;;;;;15.23;4.53;;;;;;;;;;5023952;28;20571;-84
2024/03/15 08:14:16;;;;;;;14.77;4.68;;;;;;;;;;5017281;28;20056;-82
2024/03/15 08:16:44;;;;;;;22.23;5.85;;;;;;;;;;5017387;28;20064;-84
2024/03/15 08:19:12;;;;;;;16.92;5.40;;;;;;;;;;5017712;28;20033;-84
2024/03/15 08:21:40;;;;;;;17.58;5.45;;;;;;;;;;5016724;28;20121;-84
2024/03/15 08:24:10;;;;;;;17.40;5.20;;;;;;;;;;5021517;28;20100;-83
2024/03/15 08:26:39;;;;;;;16.73;5.20;;;;;;;;;;5027709;28;20036;-89
2024/03/15 08:29:08;;;;;;;17.30;5.55;;;;;;;;;;5036493;28;20065;-89
2024/03/15 08:31:35;;;;;;;16.63;4.93;;;;;;;;;;5038689;28;20025;-91
2024/03/15 08:34:02;;;;;;;20.90;5.78;;;;;;;;;;5034494;28;20403;-92
2024/03/15 08:36:34;;;;;;;17.52;5.38;;;;;;;;;;5030781;28;20101;-88
2024/03/15 08:39:03;;;;;;;17.40;5.28;;;;;;;;;;5034079;28;20063;-91
2024/03/15 08:41:30;;;;;;;16.73;4.80;;;;;;;;;;5024662;28;20646;-90
2024/03/15 08:43:56;;;;;;;18.27;4.60;;;;;;;;;;5030037;28;20112;-91
2024/03/15 08:46:22;;;;;;;;;;;;;;;;;;5024601;28;20041;-89
2024/03/15 08:48:50;;;;;;;15.48;4.75;;;;;;;;;;5024443;28;19913;-89
2024/03/15 08:51:17;;;;;;;17.38;5.32;;;;;;;;;;5023944;28;20582;-88
2024/03/15 08:53:45;;;;;;;16.38;4.05;;;;;;;;;;5027013;28;20369;-91
2024/03/15 08:56:11;;;;;;;17.08;4.35;;;;;;;;;;5025632;28;20029;-90
2024/03/15 08:58:37;;;;;;;;;;;;;;;;;;5021976;28;20025;-89
2024/03/15 09:01:05;;;;;;;16.23;4.78;;;;;;;;;;5023520;28;20430;-87
2024/03/15 09:03:33;;;;;;;17.10;5.28;;;;;;;;;;5030385;28;20061;-89
2024/03/15 09:06:08;;;;;;;15.07;4.40;;;;;;;;;;5033052;28;20065;-89
2024/03/15 09:08:36;;;;;;;14.88;4.32;;;;;;;;;;5024918;28;20502;-89
2024/03/15 09:11:04;;;;;;;12.85;4.43;;;;;;;;;;5009803;28;20040;-90
2024/03/15 09:13:31;;;;;;;22.75;7.38;;;;;;;;;;5022089;28;20378;-86
2024/03/15 09:15:58;;;;;;;15.10;5.72;;;;;;;;;;5019909;28;20033;-89
2024/03/15 09:18:33;;;;;;;21.73;8.50;;;;;;;;;;5020494;28;20017;-90
2024/03/15 09:21:00;;;;;;;16.98;6.05;;;;;;;;;;5023476;28;20047;-90
2024/03/15 09:23:28;;;;;;;15.48;4.82;;;;;;;;;;5025841;28;20209;-90
2024/03/15 09:25:57;;;;;;;17.98;5.15;;;;;;;;;;5031451;28;20092;-90
2024/03/15 09:28:37;;;;;;;15.48;4.50;;;;;;;;;;5029935;28;20099;-89
2024/03/15 09:31:09;;;;;;;17.10;5.20;;;;;;;;;;5026856;28;20045;-90
2024/03/15 09:33:39;;;;;;;14.15;4.28;;;;;;;;;;5023062;28;20446;-89
2024/03/15 09:36:16;;;;;;;16.08;4.40;;;;;;;;;;5033063;28;20037;-89
2024/03/15 09:38:47;;;;;;;16.05;4.70;;;;;;;;;;5027552;28;20059;-91
2024/03/15 09:41:15;;;;;;;15.82;4.10;;;;;;;;;;5028343;28;20058;-89
2024/03/15 09:43:45;;;;;;;13.02;3.65;;;;;;;;;;5024247;28;20064;-89
2024/03/15 09:46:24;;;;;;;14.98;4.15;;;;;;;;;;5017044;28;20041;-90
2024/03/15 09:48:52;;;;;;;16.92;4.03;;;;;;;;;;5023006;28;20068;-90
2024/03/15 09:51:18;;;;;;;17.38;4.22;;;;;;;;;;5020494;28;20037;-91
2024/03/15 09:53:49;;;;;;;13.85;3.53;;;;;;;;;;5026349;28;20037;-89
2024/03/15 09:56:17;;;;;;;14.80;3.55;;;;;;;;;;5029602;28;20075;-89
2024/03/15 09:59:03;;;;;;;15.13;3.92;;;;;;;;;;5035168;28;20051;-91
2024/03/15 10:01:32;;;;;;;14.70;3.55;;;;;;;;;;5023182;28;20034;-89
2024/03/15 10:04:01;;;;;;;11.15;3.40;;;;;;;;;;5023172;28;20067;-90
2024/03/15 10:06:28;;;;;;;14.57;3.58;;;;;;;;;;5025635;28;20125;-91
2024/03/15 10:08:56;;;;;;;10.57;2.95;;;;;;;;;;5031810;28;20098;-90
2024/03/15 10:11:24;;;;;;;10.95;3.20;;;;;;;;;;5027899;28;20044;-90
2024/03/15 10:13:53;;;;;;;13.60;3.40;;;;;;;;;;5032355;28;20070;-91
2024/03/15 10:16:22;;;;;;;14.30;3.72;;;;;;;;;;5027876;28;20029;-90
2024/03/15 10:18:50;;;;;;;16.00;3.80;;;;;;;;;;5030861;28;20851;-90
2024/03/15 10:21:18;;;;;;;13.55;4.05;;;;;;;;;;5024926;28;20102;-83
2024/03/15 10:23:47;;;;;;;12.77;3.85;;;;;;;;;;5019536;28;20048;-82
2024/03/15 10:26:17;;;;;;;12.73;3.85;;;;;;;;;;5008390;28;20052;-84
2024/03/15 10:28:44;;;;;;;15.95;3.65;;;;;;;;;;5014070;28;20041;-85
2024/03/15 10:31:13;;;;;;;11.57;3.47;;;;;;;;;;5012811;28;20487;-84
2024/03/15 10:33:40;;;;;;;15.25;3.80;;;;;;;;;;5017536;28;20034;-85
2024/03/15 10:36:08;;;;;;;13.77;3.50;;;;;;;;;;5017292;28;20017;-83
2024/03/15 10:38:40;;;;;;;13.00;4.03;;;;;;;;;;5011607;28;20044;-82
2024/03/15 10:41:07;;;;;;;14.13;3.75;;;;;;;;;;5017055;28;20076;-83
2024/03/15 10:43:36;;;;;;;13.13;3.80;;;;;;;;;;5020412;28;20572;-84
2024/03/15 10:46:02;;;;;;;12.32;3.60;;;;;;;;;;5014694;28;20044;-83
2024/03/15 10:48:29;;;;;;;17.90;4.38;;;;;;;;;;5022464;28;20032;-82
2024/03/15 10:50:57;;;;;;;14.65;4.38;;;;;;;;;;5025760;28;20056;-83
2024/03/15 10:53:24;;;;;;;13.60;4.22;;;;;;;;;;5016488;28;20064;-84
2024/03/15 10:55:51;;;;;;;13.80;3.78;;;;;;;;;;5017927;28;20229;-82
2024/03/15 10:58:17;;;;;;;14.45;4.15;;;;;;;;;;5017305;28;20403;-83
2024/03/15 11:00:46;;;;;;;16.67;4.30;;;;;;;;;;5021099;28;20040;-83
2024/03/15 11:03:12;;;;;;;14.48;3.80;;;;;;;;;;5013048;28;20037;-82
2024/03/15 11:05:39;;;;;;;14.70;3.97;;;;;;;;;;5011035;28;20028;-83
2024/03/15 11:08:08;;;;;;;13.90;4.10;;;;;;;;;;5015250;28;20653;-82
2024/03/15 11:10:34;;;;;;;14.57;3.78;;;;;;;;;;5011639;28;20120;-83
2024/03/15 11:13:03;;;;;;;15.02;4.18;;;;;;;;;;5015652;28;20033;-82
2024/03/15 11:15:35;;;;;;;15.02;4.00;;;;;;;;;;5009770;28;20033;-83
2024/03/15 11:18:12;;;;;;;12.60;3.70;;;;;;;;;;5012932;28;20040;-83
2024/03/15 11:20:54;;;;;;;14.18;4.10;;;;;;;;;;5029028;28;20021;-83
2024/03/15 11:23:22;;;;;;;14.32;4.03;;;;;;;;;;5024339;28;20377;-82
2024/03/15 11:25:54;;;;;;;14.77;3.72;;;;;;;;;;5018958;28;20112;-83
2024/03/15 11:28:26;;;;;;;12.13;3.50;;;;;;;;;;5014445;28;20033;-81
2024/03/15 11:30:53;;;;;;;11.77;3.60;;;;;;;;;;5021397;28;20480;-82
2024/03/15 11:33:21;;;;;;;11.50;3.72;;;;;;;;;;5016453;28;20030;-85
2024/03/15 11:35:49;;;;;;;11.85;3.30;;;;;;;;;;5018011;28;20037;-82
2024/03/15 11:38:22;;;;;;;;;;;;;;;;;;5014660;28;20041;-81
2024/03/15 11:40:52;;;;;;;14.85;3.90;;;;;;;;;;5013624;28;19925;-84
2024/03/15 11:43:18;;;;;;;15.60;3.75;;;;;;;;;;5013488;28;20041;-82
2024/03/15 11:45:44;;;;;;;12.05;3.70;;;;;;;;;;5015127;28;20403;-84
2024/03/15 11:48:17;;;;;;;10.88;3.35;;;;;;;;;;5008407;28;20037;-83
2024/03/15 11:50:47;;;;;;;13.88;3.40;;;;;;;;;;5014224;28;20087;-81
2024/03/15 11:53:14;;;;;;;11.55;3.35;;;;;;;;;;5009557;28;20468;-83
2024/03/15 11:55:41;;;;;;;14.55;4.18;;;;;;;;;;5015139;28;20029;-84
2024/03/15 11:58:12;;;;;;;16.02;3.90;;;;;;;;;;5014689;28;20495;-83
2024/03/15 12:00:39;;;;;;;12.23;3.70;;;;;;;;;;5017635;28;20068;-82
2024/03/15 12:03:08;;;;;;;12.55;3.85;;;;;;;;;;5008562;28;20620;-84
2024/03/15 12:05:40;;;;;;;12.60;3.75;;;;;;;;;;5015199;28;20041;-81
2024/03/15 12:08:10;;;;;;;12.35;3.30;;;;;;;;;;5015045;28;20252;-83
2024/03/15 12:10:37;;;;;;;11.57;3.63;;;;;;;;;;5009840;28;20060;-81
2024/03/15 12:13:12;;;;;;;14.75;3.65;;;;;;;;;;5013388;28;20044;-82
2024/03/15 12:15:39;;;;;;;13.75;3.60;;;;;;;;;;5013785;28;20029;-81
2024/03/15 12:18:08;;;;;;;12.40;3.50;;;;;;;;;;5014979;28;20110;-81
2024/03/15 12:20:37;;;;;;;13.07;3.53;;;;;;;;;;5010723;28;20029;-81
2024/03/15 12:23:05;;;;;;;13.65;3.67;;;;;;;;;;5017297;28;20034;-82
2024/03/15 12:25:31;;;;;;;18.70;3.88;;;;;;;;;;5010894;28;20064;-83
2024/03/15 12:27:58;;;;;;;12.68;3.78;;;;;;;;;;5014505;28;20044;-81
2024/03/15 12:30:24;;;;;;;15.63;4.03;;;;;;;;;;5011603;28;20036;-82
2024/03/15 12:32:51;;;;;;;15.45;4.00;;;;;;;;;;5016753;28;20068;-81
2024/03/15 12:35:17;;;;;;;13.90;4.13;;;;;;;;;;5010780;28;20034;-83
2024/03/15 12:37:44;;;;;;;12.68;3.75;;;;;;;;;;5017560;28;20026;-84
2024/03/15 12:40:19;;;;;;;11.50;3.95;;;;;;;;;;5029979;28;20053;-83
2024/03/15 12:42:45;;;;;;;12.65;3.90;;;;;;;;;;5033413;28;20043;-83
2024/03/15 12:45:15;;;;;;;11.77;3.63;;;;;;;;;;5011600;28;20041;-83
2024/03/15 12:47:43;;;;;;;14.07;4.10;;;;;;;;;;5017236;28;20033;-83
2024/03/15 12:50:26;;;;;;;14.73;4.13;;;;;;;;;;5016689;28;20060;-83
2024/03/15 12:52:57;;;;;;;14.25;3.78;;;;;;;;;;5016976;28;20129;-82
2024/03/15 12:55:29;;;;;;;17.42;3.95;;;;;;;;;;5014903;28;20094;-83
2024/03/15 12:58:02;;;;;;;11.18;3.35;;;;;;;;;;5018200;28;20033;-82
2024/03/15 13:00:38;;;;;;;10.05;3.25;;;;;;;;;;5015626;28;20048;-83
2024/03/15 13:03:05;;;;;;;13.18;3.78;;;;;;;;;;5018920;28;20033;-83
2024/03/15 13:05:32;;;;;;;15.63;4.00;;;;;;;;;;5007926;28;20049;-84
2024/03/15 13:08:02;;;;;;;12.00;3.25;;;;;;;;;;5016431;28;20590;-83
2024/03/15 13:10:34;;;;;;;14.70;4.20;;;;;;;;;;5008228;28;20033;-82
2024/03/15 13:13:07;;;;;;;12.93;4.07;;;;;;;;;;5018705;28;20037;-81
2024/03/15 13:15:35;;;;;;;13.20;3.70;;;;;;;;;;5010507;28;20032;-83
2024/03/15 13:18:04;;;;;;;13.25;3.65;;;;;;;;;;5017518;28;20026;-82
2024/03/15 13:20:31;;;;;;;13.85;3.97;;;;;;;;;;5011864;28;20037;-82
2024/03/15 13:23:02;;;;;;;14.70;3.92;;;;;;;;;;5015508;28;20041;-84
2024/03/15 13:25:29;;;;;;;15.38;3.67;;;;;;;;;;5007584;28;21421;-82
2024/03/15 13:27:55;;;;;;;11.65;3.67;;;;;;;;;;5006798;28;20388;-83
2024/03/15 13:30:26;;;;;;;15.02;4.03;;;;;;;;;;5006923;28;20121;-83
2024/03/15 13:32:57;;;;;;;12.52;4.00;;;;;;;;;;5006825;28;20045;-81
2024/03/15 13:35:23;;;;;;;13.52;3.67;;;;;;;;;;5004722;28;21476;-82
2024/03/15 13:37:52;;;;;;;16.75;4.00;;;;;;;;;;5012328;28;20041;-82
2024/03/15 13:40:30;;;;;;;12.10;3.70;;;;;;;;;;5013866;28;20139;-81
2024/03/15 13:42:58;;;;;;;11.18;3.60;;;;;;;;;;5011380;28;20872;-82
2024/03/15 13:45:27;;;;;;;11.73;3.75;;;;;;;;;;5005582;28;20032;-82
2024/03/15 13:47:55;;;;;;;11.50;3.50;;;;;;;;;;5009126;28;20044;-84
2024/03/15 13:50:28;;;;;;;12.93;3.90;;;;;;;;;;5001967;28;20621;-81
2024/03/15 13:52:57;;;;;;;13.07;3.95;;;;;;;;;;5001711;28;20128;-85
2024/03/15 13:55:24;;;;;;;10.63;3.65;;;;;;;;;;5016628;28;20159;-83
2024/03/15 13:57:53;;;;;;;11.25;3.65;;;;;;;;;;5024350;28;20125;-84
2024/03/15 14:00:32;;;;;;;12.85;3.63;;;;;;;;;;5027593;28;20083;-82
2024/03/15 14:03:05;;;;;;;11.70;3.88;;;;;;;;;;5028188;28;20677;-84
2024/03/15 14:05:35;;;;;;;15.38;6.93;;;;;;;;;;5022593;28;20077;-83
2024/03/15 14:08:02;;;;;;;15.15;5.07;;;;;;;;;;5017182;28;20033;-83
2024/03/15 14:10:31;;;;;;;14.38;4.70;;;;;;;;;;4999258;28;20029;-82
2024/03/15 14:12:58;;;;;;;12.65;4.13;;;;;;;;;;5009346;28;20032;-83
2024/03/15 14:15:26;;;;;;;12.77;5.15;;;;;;;;;;4992536;28;20115;-83
2024/03/15 14:17:56;;;;;;;12.13;4.35;;;;;;;;;;5005989;28;20109;-85
2024/03/15 14:20:34;;;;;;;12.18;3.88;;;;;;;;;;5005257;28;21016;-83
2024/03/15 14:23:04;;;;;;;11.82;5.47;;;;;;;;;;5016569;28;20065;-82
2024/03/15 14:25:34;;;;;;;13.10;4.53;;;;;;;;;;5008487;28;20096;-85
2024/03/15 14:28:05;;;;;;;12.32;3.95;;;;;;;;;;5006448;28;20059;-83
2024/03/15 14:30:34;;;;;;;9.75;3.90;;;;;;;;;;5004682;28;20037;-83
2024/03/15 14:33:02;;;;;;;10.50;3.70;;;;;;;;;;5008858;28;20159;-82
2024/03/15 14:35:30;;;;;;;10.80;3.58;;;;;;;;;;5002037;28;20049;-82
2024/03/15 14:37:58;;;;;;;12.98;4.32;;;;;;;;;;5014063;28;20142;-82
2024/03/15 14:40:25;;;;;;;11.15;3.58;;;;;;;;;;5009609;28;20436;-84
2024/03/15 14:42:55;;;;;;;15.75;11.90;;;;;;;;;;5010773;28;20044;-84
2024/03/15 14:45:33;;;;;;;12.27;6.63;;;;;;;;;;5009793;28;20034;-84
2024/03/15 14:48:03;;;;;;;12.80;4.40;;;;;;;;;;5010538;28;20029;-84